createdAt,value
2022-10-12T00:04:46.797Z,96.86
2022-10-12T00:09:48.351Z,97.23
2022-10-12T00:14:50.746Z,97.23
2022-10-12T00:19:52.301Z,96.22
2022-10-12T00:24:53.981Z,95.87
2022-10-12T00:29:55.559Z,96.02
2022-10-12T00:34:57.131Z,95.98
2022-10-12T00:39:58.706Z,94.76
2022-10-12T00:45:00.263Z,95.42
2022-10-12T00:50:10.916Z,93.43
2022-10-12T00:55:17.799Z,95.50
2022-10-12T01:00:20.761Z,96.83
2022-10-12T01:05:23.093Z,97.67
2022-10-12T01:10:24.710Z,96.84
2022-10-12T01:15:33.334Z,97.53
2022-10-12T01:20:47.574Z,97.80
2022-10-12T01:26:21.437Z,96.73
2022-10-12T01:31:32.933Z,97.16
2022-10-12T01:36:42.967Z,96.04
2022-10-12T01:41:48.753Z,93.84
2022-10-12T01:46:52.349Z,93.77
2022-10-12T01:52:10.652Z,95.14
2022-10-12T01:57:21.008Z,97.66
2022-10-12T02:02:34.855Z,98.66
2022-10-12T02:07:47.538Z,97.84
2022-10-12T02:12:50.056Z,97.20
2022-10-12T02:17:53.179Z,95.18
2022-10-12T02:22:55.001Z,95.17
2022-10-12T02:28:03.386Z,97.53
2022-10-12T02:33:17.532Z,99.40
2022-10-12T02:38:41.191Z,96.64
2022-10-12T02:43:52.242Z,96.94
2022-10-12T02:48:55.828Z,98.91
2022-10-12T02:53:57.450Z,98.29
2022-10-12T02:58:59.129Z,96.86
2022-10-12T03:04:00.676Z,96.09
2022-10-12T03:09:02.584Z,97.00
2022-10-12T03:14:04.576Z,99.28
2022-10-12T03:19:06.306Z,98.49
2022-10-12T03:24:07.933Z,97.40
2022-10-12T03:29:09.567Z,99.33
2022-10-12T03:34:11.231Z,99.96
2022-10-12T03:39:12.833Z,100.00
2022-10-12T03:44:14.431Z,100.00
2022-10-12T03:49:16.042Z,97.05
2022-10-12T03:54:17.593Z,94.90
2022-10-12T03:59:19.211Z,96.95
2022-10-12T04:04:24.303Z,99.10
2022-10-12T04:09:25.959Z,99.78
2022-10-12T04:14:27.556Z,100.00
2022-10-12T04:19:29.150Z,100.00
2022-10-12T04:24:30.855Z,98.87
2022-10-12T04:29:32.581Z,98.67
2022-10-12T04:34:36.047Z,99.12
2022-10-12T04:39:37.663Z,99.73
2022-10-12T04:44:39.278Z,99.59
2022-10-12T04:49:40.866Z,99.50
2022-10-12T04:54:42.464Z,98.69
2022-10-12T04:59:44.092Z,98.91
2022-10-12T05:04:45.714Z,99.44
2022-10-12T05:09:47.343Z,97.67
2022-10-12T05:14:48.886Z,97.85
2022-10-12T05:19:50.520Z,100.00
2022-10-12T05:24:53.903Z,98.65
2022-10-12T05:29:55.798Z,100.00
2022-10-12T05:34:57.571Z,100.00
2022-10-12T05:39:59.222Z,100.00
2022-10-12T05:45:01.243Z,97.52
2022-10-12T05:50:03.730Z,97.31
2022-10-12T05:55:05.916Z,97.95
2022-10-12T06:00:09.658Z,99.51
2022-10-12T06:05:14.410Z,99.60
2022-10-12T06:10:16.074Z,100.00
2022-10-12T06:15:17.804Z,100.00
2022-10-12T06:20:19.577Z,100.00
2022-10-12T06:25:21.185Z,100.00
2022-10-12T06:30:23.070Z,100.00
2022-10-12T06:35:24.835Z,99.54
2022-10-12T06:40:26.606Z,99.31
2022-10-12T06:45:29.821Z,100.00
2022-10-12T06:50:31.496Z,100.00
2022-10-12T06:55:33.154Z,100.00
2022-10-12T07:00:35.197Z,99.97
2022-10-12T07:05:36.728Z,97.79
2022-10-12T07:10:38.322Z,96.04
2022-10-12T07:15:39.887Z,96.36
2022-10-12T07:20:41.442Z,95.81
2022-10-12T07:25:53.262Z,92.39
2022-10-12T07:30:54.897Z,89.87
2022-10-12T07:36:13.213Z,88.49
2022-10-12T07:41:16.146Z,87.58
2022-10-12T07:46:17.757Z,87.81
2022-10-12T07:51:19.632Z,86.78
2022-10-12T07:56:21.351Z,85.38
2022-10-12T08:01:24.834Z,82.90
2022-10-12T08:06:29.319Z,81.23
2022-10-12T08:11:31.081Z,81.83
2022-10-12T08:16:32.792Z,82.21
2022-10-12T08:21:34.459Z,80.31
2022-10-12T08:26:36.477Z,80.78
2022-10-12T08:31:38.095Z,79.31
2022-10-12T08:36:39.667Z,80.70
2022-10-12T08:41:56.518Z,79.93
2022-10-12T08:47:04.429Z,80.36
2022-10-12T08:52:20.770Z,78.28
2022-10-12T08:57:22.386Z,74.70
2022-10-12T09:03:07.118Z,73.71
2022-10-12T09:08:50.650Z,73.49
2022-10-12T09:14:18.346Z,71.78
2022-10-12T09:19:42.577Z,70.53
2022-10-12T09:24:47.817Z,70.30
2022-10-12T09:29:55.402Z,67.21
2022-10-12T09:34:58.256Z,69.73
2022-10-12T09:40:00.172Z,67.63
2022-10-12T09:45:12.484Z,66.63
2022-10-12T09:50:37.169Z,64.38
2022-10-12T09:55:38.837Z,61.75
2022-10-12T10:00:40.536Z,59.76
2022-10-12T10:05:42.261Z,59.39
2022-10-12T10:10:55.486Z,58.66
2022-10-12T10:16:11.436Z,53.70
2022-10-12T10:21:15.157Z,54.61
2022-10-12T10:26:19.247Z,53.73
2022-10-12T10:31:25.529Z,52.50
2022-10-12T10:36:27.782Z,51.91
2022-10-12T10:41:36.940Z,51.69
2022-10-12T10:46:38.580Z,46.94
2022-10-12T10:51:41.998Z,45.89
2022-10-12T10:56:44.532Z,45.59
2022-10-12T11:01:55.823Z,45.82
2022-10-12T11:07:03.524Z,44.46
2022-10-12T11:12:17.392Z,43.47
2022-10-12T11:17:42.200Z,44.55
2022-10-12T11:22:57.627Z,43.74
2022-10-12T11:27:59.466Z,42.50
2022-10-12T11:33:05.355Z,44.85
2022-10-12T11:38:35.814Z,45.11
2022-10-12T11:43:56.453Z,44.64
2022-10-12T11:49:07.223Z,43.14
2022-10-12T11:54:24.841Z,46.52
2022-10-12T11:59:34.740Z,42.88
2022-10-12T12:04:42.785Z,45.42
2022-10-12T12:09:50.226Z,45.91
2022-10-12T12:14:55.568Z,47.13
2022-10-12T12:20:01.673Z,46.79
2022-10-12T12:25:10.979Z,47.82
2022-10-12T12:30:18.677Z,49.31
2022-10-12T12:35:34.203Z,48.71
2022-10-12T12:40:36.319Z,50.10
2022-10-12T12:45:41.326Z,49.03
2022-10-12T12:50:43.099Z,50.09
2022-10-12T12:55:50.652Z,49.38
2022-10-12T13:01:17.156Z,51.00
2022-10-12T13:06:55.026Z,49.79
2022-10-12T13:12:05.699Z,50.13
2022-10-12T13:17:40.668Z,49.99
2022-10-12T13:22:44.470Z,50.09
2022-10-12T13:27:51.800Z,50.14
2022-10-12T13:33:02.685Z,48.73
2022-10-12T13:38:16.192Z,49.42
2022-10-12T13:43:28.660Z,49.69
2022-10-12T13:48:57.401Z,49.11
2022-10-12T13:53:52.539Z,49.37
2022-10-12T13:58:59.726Z,50.25
2022-10-12T14:04:05.562Z,50.08
2022-10-12T14:09:15.017Z,50.47
2022-10-12T14:14:33.342Z,49.29
2022-10-12T14:19:45.359Z,50.19
2022-10-12T14:24:47.764Z,50.27
2022-10-12T14:30:03.877Z,50.52
2022-10-12T14:35:08.486Z,50.29
2022-10-12T14:40:27.402Z,50.37
2022-10-12T14:45:29.575Z,50.86
2022-10-12T14:50:32.813Z,51.72
2022-10-12T14:55:34.673Z,53.84
2022-10-12T15:00:37.708Z,52.54
2022-10-12T15:05:39.371Z,52.67
2022-10-12T15:10:40.942Z,53.45
2022-10-12T15:15:46.479Z,54.21
2022-10-12T15:20:49.736Z,54.48
2022-10-12T15:25:56.191Z,55.13
2022-10-12T15:36:21.344Z,57.37
2022-10-12T15:41:25.737Z,58.02
2022-10-12T15:46:27.832Z,58.05
2022-10-12T15:51:29.653Z,58.88
2022-10-12T15:56:31.406Z,59.70
2022-10-12T16:01:35.102Z,61.44
2022-10-12T16:06:36.692Z,60.99
2022-10-12T16:11:38.267Z,62.31
2022-10-12T16:16:39.859Z,64.46
2022-10-12T16:21:41.429Z,65.98
2022-10-12T16:26:45.102Z,68.22
2022-10-12T16:31:47.011Z,71.44
2022-10-12T16:36:48.658Z,73.38
2022-10-12T16:41:50.331Z,74.83
2022-10-12T16:46:51.986Z,75.27
2022-10-12T16:51:53.747Z,76.85
2022-10-12T16:56:56.727Z,76.85
2022-10-12T17:01:58.323Z,78.04
2022-10-12T17:07:00.002Z,78.52
2022-10-12T17:12:01.762Z,80.22
2022-10-12T17:17:04.100Z,81.06
2022-10-12T17:22:07.078Z,82.24
2022-10-12T17:27:11.230Z,82.23
2022-10-12T17:32:13.021Z,83.74
2022-10-12T17:37:15.709Z,84.63
2022-10-12T17:42:18.015Z,83.94
2022-10-12T17:47:20.101Z,84.47
2022-10-12T17:52:21.914Z,85.34
2022-10-12T17:57:23.548Z,86.73
2022-10-12T18:02:25.115Z,87.21
2022-10-12T18:07:26.698Z,86.84
2022-10-12T18:12:28.364Z,87.75
2022-10-12T18:17:29.941Z,88.80
2022-10-12T18:22:31.990Z,89.35
2022-10-12T18:27:33.877Z,89.71
2022-10-12T18:32:36.065Z,89.96
2022-10-12T18:37:38.105Z,90.43
2022-10-12T18:42:40.024Z,91.16
2022-10-12T18:47:42.003Z,91.54
2022-10-12T18:52:44.311Z,91.47
2022-10-12T18:57:45.916Z,92.04
2022-10-12T19:02:47.697Z,92.39
2022-10-12T19:07:49.660Z,92.29
2022-10-12T19:12:51.504Z,92.06
2022-10-12T19:17:53.307Z,91.98
2022-10-12T19:22:55.454Z,93.02
2022-10-12T19:27:57.189Z,93.27
2022-10-12T19:32:58.870Z,93.87
2022-10-12T19:38:00.455Z,95.26
2022-10-12T19:43:02.070Z,95.25
2022-10-12T19:48:04.378Z,96.21
2022-10-12T19:53:06.776Z,95.52
2022-10-12T19:58:08.593Z,96.47
2022-10-12T20:03:10.263Z,97.20
2022-10-12T20:08:13.014Z,96.98
2022-10-12T20:13:15.515Z,96.58
2022-10-12T20:18:17.264Z,96.41
2022-10-12T20:23:19.245Z,97.11
2022-10-12T20:28:22.239Z,97.96
2022-10-12T20:33:23.880Z,97.78
2022-10-12T20:38:25.513Z,98.21
2022-10-12T20:43:27.278Z,97.66
2022-10-12T20:48:29.645Z,98.35
2022-10-12T20:53:31.556Z,96.81
2022-10-12T20:58:33.368Z,98.06
2022-10-12T21:03:35.350Z,99.44
2022-10-12T21:08:37.701Z,99.76
2022-10-12T21:13:41.222Z,100.00
2022-10-12T21:18:43.233Z,100.00
2022-10-12T21:23:52.136Z,99.35
2022-10-12T21:28:53.989Z,99.71
2022-10-12T21:33:55.806Z,100.00
2022-10-12T21:38:57.586Z,99.53
2022-10-12T21:43:59.173Z,100.00
2022-10-12T21:49:02.426Z,99.56
2022-10-12T21:54:05.545Z,99.18
2022-10-12T21:59:07.109Z,100.00
2022-10-12T22:04:13.839Z,99.13
2022-10-12T22:09:19.301Z,99.83
2022-10-12T22:14:20.885Z,100.00
2022-10-12T22:19:22.536Z,100.00
2022-10-12T22:24:24.069Z,100.00
2022-10-12T22:29:25.670Z,100.00
2022-10-12T22:34:27.317Z,100.00
2022-10-12T22:39:28.999Z,100.00
2022-10-12T22:44:30.546Z,100.00
2022-10-12T22:49:32.126Z,100.00
2022-10-12T22:54:33.761Z,100.00
2022-10-12T22:59:35.445Z,100.00
2022-10-12T23:04:37.012Z,100.00
2022-10-12T23:09:38.690Z,100.00
2022-10-12T23:14:40.242Z,100.00
2022-10-12T23:19:41.817Z,100.00
2022-10-12T23:24:43.563Z,100.00
2022-10-12T23:29:47.009Z,100.00
2022-10-12T23:34:50.170Z,100.00
2022-10-12T23:39:51.674Z,100.00
2022-10-12T23:44:53.251Z,100.00
2022-10-12T23:49:54.804Z,100.00
2022-10-12T23:54:56.388Z,100.00
2022-10-12T23:59:57.924Z,100.00
